sensor_id;sensor_type;location;lat;lon;timestamp;pressure;altitude;pressure_sealevel;temperature;humidity
12468;BME280;57850;52.922;6.256;2023-07-31T00:02:13;100033.72;;;19.00;100.00
12468;BME280;57850;52.922;6.256;2023-07-31T00:04:40;100011.78;;;19.09;100.00
12468;BME280;57850;52.922;6.256;2023-07-31T00:07:07;99992.72;;;18.85;100.00
12468;BME280;57850;52.922;6.256;2023-07-31T00:09:34;99946.88;;;18.54;100.00
12468;BME280;57850;52.922;6.256;2023-07-31T00:12:02;99873.50;;;18.67;100.00
12468;BME280;57850;52.922;6.256;2023-07-31T00:14:28;99858.63;;;18.96;100.00
12468;BME280;57850;52.922;6.256;2023-07-31T00:16:55;99879.66;;;18.98;100.00
12468;BME280;57850;52.922;6.256;2023-07-31T00:19:21;99924.41;;;18.90;100.00
12468;BME280;57850;52.922;6.256;2023-07-31T00:21:48;99879.75;;;18.87;100.00
12468;BME280;57850;52.922;6.256;2023-07-31T00:24:15;99893.47;;;18.81;100.00
12468;BME280;57850;52.922;6.256;2023-07-31T00:26:42;99889.44;;;19.07;100.00
12468;BME280;57850;52.922;6.256;2023-07-31T00:29:10;99880.59;;;18.87;100.00
12468;BME280;57850;52.922;6.256;2023-07-31T00:31:36;99913.84;;;18.90;100.00
12468;BME280;57850;52.922;6.256;2023-07-31T00:34:03;99911.03;;;18.82;100.00
12468;BME280;57850;52.922;6.256;2023-07-31T00:36:29;99869.34;;;18.95;100.00
12468;BME280;57850;52.922;6.256;2023-07-31T00:38:56;99850.69;;;18.96;100.00
12468;BME280;57850;52.922;6.256;2023-07-31T00:41:23;99861.16;;;18.98;100.00
12468;BME280;57850;52.922;6.256;2023-07-31T00:43:49;99845.25;;;18.88;100.00
12468;BME280;57850;52.922;6.256;2023-07-31T00:46:17;99846.16;;;18.78;100.00
12468;BME280;57850;52.922;6.256;2023-07-31T00:48:45;99798.66;;;18.97;100.00
12468;BME280;57850;52.922;6.256;2023-07-31T00:51:11;99823.19;;;18.68;100.00
12468;BME280;57850;52.922;6.256;2023-07-31T00:53:38;99623.03;;;18.80;100.00
12468;BME280;57850;52.922;6.256;2023-07-31T00:56:05;99581.56;;;18.71;100.00
12468;BME280;57850;52.922;6.256;2023-07-31T00:58:32;99545.97;;;18.56;100.00
12468;BME280;57850;52.922;6.256;2023-07-31T01:00:59;99530.41;;;18.62;100.00
12468;BME280;57850;52.922;6.256;2023-07-31T01:03:27;99535.53;;;18.54;100.00
12468;BME280;57850;52.922;6.256;2023-07-31T01:05:59;99528.16;;;18.77;100.00
12468;BME280;57850;52.922;6.256;2023-07-31T01:08:34;99595.75;;;18.80;100.00
12468;BME280;57850;52.922;6.256;2023-07-31T01:11:09;99594.81;;;19.00;100.00
12468;BME280;57850;52.922;6.256;2023-07-31T01:13:38;99648.38;;;18.73;100.00
12468;BME280;57850;52.922;6.256;2023-07-31T01:16:05;99583.19;;;18.43;100.00
12468;BME280;57850;52.922;6.256;2023-07-31T01:18:33;99541.38;;;18.67;100.00
12468;BME280;57850;52.922;6.256;2023-07-31T01:21:06;99518.25;;;19.08;100.00
12468;BME280;57850;52.922;6.256;2023-07-31T01:24:06;99590.22;;;19.02;100.00
12468;BME280;57850;52.922;6.256;2023-07-31T01:26:38;99599.78;;;18.74;100.00
12468;BME280;57850;52.922;6.256;2023-07-31T01:29:10;99535.13;;;18.78;100.00
12468;BME280;57850;52.922;6.256;2023-07-31T01:31:39;99530.53;;;18.80;100.00
12468;BME280;57850;52.922;6.256;2023-07-31T01:34:09;99556.56;;;18.85;100.00
12468;BME280;57850;52.922;6.256;2023-07-31T01:36:36;99569.78;;;18.85;100.00
12468;BME280;57850;52.922;6.256;2023-07-31T01:39:03;99568.66;;;18.97;100.00
12468;BME280;57850;52.922;6.256;2023-07-31T01:41:30;99581.16;;;19.14;100.00
12468;BME280;57850;52.922;6.256;2023-07-31T01:43:58;99638.78;;;18.91;100.00
12468;BME280;57850;52.922;6.256;2023-07-31T01:46:24;99624.56;;;18.92;100.00
12468;BME280;57850;52.922;6.256;2023-07-31T01:48:51;99598.41;;;18.99;100.00
12468;BME280;57850;52.922;6.256;2023-07-31T01:51:17;99660.50;;;19.33;100.00
12468;BME280;57850;52.922;6.256;2023-07-31T01:53:45;99716.06;;;19.43;100.00
12468;BME280;57850;52.922;6.256;2023-07-31T01:56:11;99761.06;;;19.52;100.00
12468;BME280;57850;52.922;6.256;2023-07-31T01:58:38;99778.34;;;19.56;100.00
12468;BME280;57850;52.922;6.256;2023-07-31T02:01:06;99825.91;;;19.37;100.00
12468;BME280;57850;52.922;6.256;2023-07-31T02:03:32;99796.78;;;19.27;100.00
12468;BME280;57850;52.922;6.256;2023-07-31T02:05:59;99744.06;;;18.86;100.00
12468;BME280;57850;52.922;6.256;2023-07-31T02:08:25;99642.66;;;18.87;100.00
12468;BME280;57850;52.922;6.256;2023-07-31T02:10:52;99580.75;;;18.90;100.00
12468;BME280;57850;52.922;6.256;2023-07-31T02:13:18;99545.13;;;18.94;100.00
12468;BME280;57850;52.922;6.256;2023-07-31T02:15:45;99500.75;;;18.97;100.00
12468;BME280;57850;52.922;6.256;2023-07-31T02:18:13;99480.19;;;18.82;100.00
12468;BME280;57850;52.922;6.256;2023-07-31T02:20:40;99441.94;;;18.86;100.00
12468;BME280;57850;52.922;6.256;2023-07-31T02:23:07;99407.28;;;18.89;100.00
12468;BME280;57850;52.922;6.256;2023-07-31T02:25:33;99392.00;;;19.19;100.00
12468;BME280;57850;52.922;6.256;2023-07-31T02:28:00;99423.38;;;18.95;100.00
12468;BME280;57850;52.922;6.256;2023-07-31T02:30:26;99391.44;;;18.79;100.00
12468;BME280;57850;52.922;6.256;2023-07-31T02:32:53;99324.84;;;19.03;100.00
12468;BME280;57850;52.922;6.256;2023-07-31T02:35:21;99276.72;;;18.99;100.00
12468;BME280;57850;52.922;6.256;2023-07-31T02:37:47;99282.06;;;19.17;100.00
12468;BME280;57850;52.922;6.256;2023-07-31T02:40:15;99289.19;;;19.34;100.00
12468;BME280;57850;52.922;6.256;2023-07-31T02:42:42;99356.16;;;19.35;100.00
12468;BME280;57850;52.922;6.256;2023-07-31T02:45:09;99377.44;;;19.33;100.00
12468;BME280;57850;52.922;6.256;2023-07-31T02:47:35;99327.69;;;19.19;100.00
12468;BME280;57850;52.922;6.256;2023-07-31T02:50:02;99307.38;;;19.19;100.00
12468;BME280;57850;52.922;6.256;2023-07-31T02:52:30;99302.22;;;19.45;100.00
12468;BME280;57850;52.922;6.256;2023-07-31T02:54:57;99351.75;;;19.53;100.00
12468;BME280;57850;52.922;6.256;2023-07-31T02:57:24;99408.34;;;19.42;100.00
12468;BME280;57850;52.922;6.256;2023-07-31T02:59:50;99388.03;;;19.33;100.00
12468;BME280;57850;52.922;6.256;2023-07-31T03:02:17;99384.63;;;19.23;100.00
12468;BME280;57850;52.922;6.256;2023-07-31T03:04:43;99374.72;;;19.25;100.00
12468;BME280;57850;52.922;6.256;2023-07-31T03:07:11;99386.88;;;19.08;100.00
12468;BME280;57850;52.922;6.256;2023-07-31T03:09:38;99409.69;;;18.73;100.00
12468;BME280;57850;52.922;6.256;2023-07-31T03:12:06;99410.06;;;18.78;100.00
12468;BME280;57850;52.922;6.256;2023-07-31T03:14:33;99421.41;;;19.07;100.00
12468;BME280;57850;52.922;6.256;2023-07-31T03:17:00;99469.47;;;18.64;100.00
12468;BME280;57850;52.922;6.256;2023-07-31T03:19:26;99454.19;;;18.67;100.00
12468;BME280;57850;52.922;6.256;2023-07-31T03:21:53;99440.69;;;18.51;100.00
12468;BME280;57850;52.922;6.256;2023-07-31T03:24:19;99396.03;;;18.77;100.00
12468;BME280;57850;52.922;6.256;2023-07-31T03:26:47;99378.94;;;18.71;100.00
12468;BME280;57850;52.922;6.256;2023-07-31T03:29:14;99391.63;;;18.58;100.00
12468;BME280;57850;52.922;6.256;2023-07-31T03:31:41;99376.00;;;19.11;100.00
12468;BME280;57850;52.922;6.256;2023-07-31T03:34:08;99420.59;;;18.97;100.00
12468;BME280;57850;52.922;6.256;2023-07-31T03:36:34;99463.72;;;19.07;100.00
12468;BME280;57850;52.922;6.256;2023-07-31T03:39:01;99491.31;;;18.95;100.00
12468;BME280;57850;52.922;6.256;2023-07-31T03:41:27;99479.63;;;18.88;100.00
12468;BME280;57850;52.922;6.256;2023-07-31T03:43:55;99455.50;;;19.10;100.00
12468;BME280;57850;52.922;6.256;2023-07-31T03:46:22;99459.78;;;19.11;100.00
12468;BME280;57850;52.922;6.256;2023-07-31T03:48:48;99463.72;;;19.07;100.00
12468;BME280;57850;52.922;6.256;2023-07-31T03:51:15;99462.81;;;19.35;100.00
12468;BME280;57850;52.922;6.256;2023-07-31T03:53:42;99508.59;;;19.45;100.00
12468;BME280;57850;52.922;6.256;2023-07-31T03:56:09;99524.91;;;19.41;100.00
12468;BME280;57850;52.922;6.256;2023-07-31T03:58:35;99543.13;;;19.34;100.00
12468;BME280;57850;52.922;6.256;2023-07-31T04:01:03;99537.72;;;19.36;100.00
12468;BME280;57850;52.922;6.256;2023-07-31T04:03:30;99533.50;;;19.33;100.00
12468;BME280;57850;52.922;6.256;2023-07-31T04:05:56;99524.06;;;19.31;100.00
12468;BME280;57850;52.922;6.256;2023-07-31T04:08:23;99492.00;;;18.78;100.00
12468;BME280;57850;52.922;6.256;2023-07-31T04:10:50;99377.25;;;18.70;100.00
12468;BME280;57850;52.922;6.256;2023-07-31T04:13:17;99241.41;;;18.73;100.00
12468;BME280;57850;52.922;6.256;2023-07-31T04:15:48;99075.56;;;18.93;100.00
12468;BME280;57850;52.922;6.256;2023-07-31T04:18:16;99063.16;;;19.11;100.00
12468;BME280;57850;52.922;6.256;2023-07-31T04:20:43;99089.59;;;19.29;100.00
12468;BME280;57850;52.922;6.256;2023-07-31T04:23:10;99094.31;;;19.17;100.00
12468;BME280;57850;52.922;6.256;2023-07-31T04:25:37;99068.97;;;19.32;100.00
12468;BME280;57850;52.922;6.256;2023-07-31T04:28:04;99068.28;;;19.30;100.00
12468;BME280;57850;52.922;6.256;2023-07-31T04:30:30;99046.59;;;19.44;100.00
12468;BME280;57850;52.922;6.256;2023-07-31T04:32:57;99022.34;;;19.31;100.00
12468;BME280;57850;52.922;6.256;2023-07-31T04:35:25;99001.41;;;19.38;100.00
12468;BME280;57850;52.922;6.256;2023-07-31T04:37:51;98938.97;;;19.45;100.00
12468;BME280;57850;52.922;6.256;2023-07-31T04:40:18;98872.88;;;19.27;100.00
12468;BME280;57850;52.922;6.256;2023-07-31T04:42:45;98835.19;;;19.17;100.00
12468;BME280;57850;52.922;6.256;2023-07-31T04:45:12;98607.44;;;19.36;100.00
12468;BME280;57850;52.922;6.256;2023-07-31T04:47:38;98594.56;;;19.49;100.00
12468;BME280;57850;52.922;6.256;2023-07-31T04:50:06;98566.63;;;19.55;100.00
12468;BME280;57850;52.922;6.256;2023-07-31T04:52:34;98599.53;;;19.60;100.00
12468;BME280;57850;52.922;6.256;2023-07-31T04:55:00;98602.50;;;19.65;100.00
12468;BME280;57850;52.922;6.256;2023-07-31T04:57:27;98605.63;;;19.61;100.00
12468;BME280;57850;52.922;6.256;2023-07-31T04:59:53;98613.56;;;19.69;100.00
12468;BME280;57850;52.922;6.256;2023-07-31T05:02:20;98611.25;;;19.66;100.00
12468;BME280;57850;52.922;6.256;2023-07-31T05:04:47;98635.41;;;19.63;100.00
12468;BME280;57850;52.922;6.256;2023-07-31T05:07:13;98635.91;;;19.58;100.00
12468;BME280;57850;52.922;6.256;2023-07-31T05:09:43;98605.28;;;19.80;100.00
12468;BME280;57850;52.922;6.256;2023-07-31T05:12:10;98617.38;;;19.66;100.00
12468;BME280;57850;52.922;6.256;2023-07-31T05:14:37;98625.97;;;19.68;100.00
12468;BME280;57850;52.922;6.256;2023-07-31T05:17:04;98633.91;;;19.68;100.00
12468;BME280;57850;52.922;6.256;2023-07-31T05:19:30;98623.16;;;19.78;100.00
12468;BME280;57850;52.922;6.256;2023-07-31T05:21:57;98673.41;;;19.86;100.00
12468;BME280;57850;52.922;6.256;2023-07-31T05:24:23;98702.72;;;19.68;100.00
12468;BME280;57850;52.922;6.256;2023-07-31T05:26:51;98676.09;;;19.78;100.00
12468;BME280;57850;52.922;6.256;2023-07-31T05:29:18;98692.97;;;19.85;100.00
12468;BME280;57850;52.922;6.256;2023-07-31T05:31:45;98715.44;;;19.65;100.00
12468;BME280;57850;52.922;6.256;2023-07-31T05:34:11;98692.66;;;19.64;100.00
12468;BME280;57850;52.922;6.256;2023-07-31T05:36:38;98642.34;;;19.72;100.00
12468;BME280;57850;52.922;6.256;2023-07-31T05:39:05;98674.13;;;19.64;100.00
12468;BME280;57850;52.922;6.256;2023-07-31T05:41:33;98684.69;;;19.80;100.00
12468;BME280;57850;52.922;6.256;2023-07-31T05:44:02;98716.13;;;19.91;100.00
12468;BME280;57850;52.922;6.256;2023-07-31T05:46:28;98751.03;;;19.78;100.00
12468;BME280;57850;52.922;6.256;2023-07-31T05:48:56;98709.50;;;19.71;100.00
12468;BME280;57850;52.922;6.256;2023-07-31T05:51:23;98685.69;;;19.71;100.00
12468;BME280;57850;52.922;6.256;2023-07-31T05:53:49;98649.91;;;19.99;100.00
12468;BME280;57850;52.922;6.256;2023-07-31T05:56:16;98682.19;;;19.95;100.00
12468;BME280;57850;52.922;6.256;2023-07-31T05:58:42;98682.84;;;19.81;100.00
12468;BME280;57850;52.922;6.256;2023-07-31T06:01:10;98704.38;;;19.86;100.00
12468;BME280;57850;52.922;6.256;2023-07-31T06:03:37;98717.78;;;19.76;100.00
12468;BME280;57850;52.922;6.256;2023-07-31T06:06:03;98696.59;;;19.76;100.00
12468;BME280;57850;52.922;6.256;2023-07-31T06:08:30;98719.94;;;19.72;100.00
12468;BME280;57850;52.922;6.256;2023-07-31T06:10:57;98692.28;;;19.75;100.00
12468;BME280;57850;52.922;6.256;2023-07-31T06:13:24;98667.63;;;19.91;100.00
12468;BME280;57850;52.922;6.256;2023-07-31T06:15:50;98703.88;;;19.74;100.00
12468;BME280;57850;52.922;6.256;2023-07-31T06:18:18;98704.19;;;20.03;100.00
12468;BME280;57850;52.922;6.256;2023-07-31T06:20:45;98723.53;;;19.96;100.00
12468;BME280;57850;52.922;6.256;2023-07-31T06:23:12;98735.63;;;20.06;100.00
12468;BME280;57850;52.922;6.256;2023-07-31T06:25:39;98764.59;;;20.00;100.00
12468;BME280;57850;52.922;6.256;2023-07-31T06:28:06;98735.47;;;20.00;100.00
12468;BME280;57850;52.922;6.256;2023-07-31T06:30:32;98758.13;;;20.02;100.00
12468;BME280;57850;52.922;6.256;2023-07-31T06:32:59;98785.75;;;19.75;100.00
12468;BME280;57850;52.922;6.256;2023-07-31T06:35:27;98719.09;;;19.88;100.00
12468;BME280;57850;52.922;6.256;2023-07-31T06:37:53;98692.94;;;19.93;100.00
12468;BME280;57850;52.922;6.256;2023-07-31T06:40:20;98658.69;;;19.84;100.00
12468;BME280;57850;52.922;6.256;2023-07-31T06:42:46;98643.63;;;20.00;100.00
12468;BME280;57850;52.922;6.256;2023-07-31T06:45:13;98619.47;;;20.03;100.00
12468;BME280;57850;52.922;6.256;2023-07-31T06:47:40;98619.66;;;19.94;100.00
12468;BME280;57850;52.922;6.256;2023-07-31T06:50:07;98587.88;;;19.94;100.00
12468;BME280;57850;52.922;6.256;2023-07-31T06:52:35;98573.97;;;20.00;100.00
12468;BME280;57850;52.922;6.256;2023-07-31T06:55:03;98582.28;;;19.89;100.00
12468;BME280;57850;52.922;6.256;2023-07-31T06:57:30;98584.97;;;19.72;100.00
12468;BME280;57850;52.922;6.256;2023-07-31T06:59:56;98539.72;;;19.98;100.00
12468;BME280;57850;52.922;6.256;2023-07-31T07:02:23;98558.81;;;19.86;100.00
12468;BME280;57850;52.922;6.256;2023-07-31T07:04:50;98585.47;;;19.52;100.00
12468;BME280;57850;52.922;6.256;2023-07-31T07:07:17;98549.66;;;19.96;100.00
12468;BME280;57850;52.922;6.256;2023-07-31T07:09:45;98574.88;;;19.76;100.00
12468;BME280;57850;52.922;6.256;2023-07-31T07:12:12;98584.47;;;19.69;100.00
12468;BME280;57850;52.922;6.256;2023-07-31T07:14:39;98553.31;;;19.87;100.00
12468;BME280;57850;52.922;6.256;2023-07-31T07:17:05;98544.22;;;19.90;100.00
12468;BME280;57850;52.922;6.256;2023-07-31T07:19:32;98561.31;;;20.18;100.00
12468;BME280;57850;52.922;6.256;2023-07-31T07:21:59;98621.81;;;19.74;100.00
12468;BME280;57850;52.922;6.256;2023-07-31T07:24:27;98578.00;;;19.71;100.00
12468;BME280;57850;52.922;6.256;2023-07-31T07:26:55;98549.00;;;19.86;100.00
12468;BME280;57850;52.922;6.256;2023-07-31T07:29:21;98551.69;;;19.78;100.00
12468;BME280;57850;52.922;6.256;2023-07-31T07:31:48;98580.31;;;19.74;100.00
12468;BME280;57850;52.922;6.256;2023-07-31T07:34:15;98579.38;;;19.43;100.00
12468;BME280;57850;52.922;6.256;2023-07-31T07:36:41;98533.88;;;19.56;100.00
12468;BME280;57850;52.922;6.256;2023-07-31T07:39:09;98517.72;;;19.43;100.00
12468;BME280;57850;52.922;6.256;2023-07-31T07:41:36;98465.38;;;19.69;100.00
12468;BME280;57850;52.922;6.256;2023-07-31T07:44:04;98460.97;;;19.53;100.00
12468;BME280;57850;52.922;6.256;2023-07-31T07:46:31;98426.63;;;19.37;100.00
12468;BME280;57850;52.922;6.256;2023-07-31T07:48:57;98381.09;;;19.58;100.00
12468;BME280;57850;52.922;6.256;2023-07-31T07:51:24;98370.84;;;19.63;100.00
12468;BME280;57850;52.922;6.256;2023-07-31T07:53:50;98381.63;;;19.45;100.00
12468;BME280;57850;52.922;6.256;2023-07-31T07:56:17;98356.16;;;19.83;100.00
12468;BME280;57850;52.922;6.256;2023-07-31T07:58:43;98398.41;;;19.68;100.00
12468;BME280;57850;52.922;6.256;2023-07-31T08:01:12;98407.00;;;19.70;100.00
12468;BME280;57850;52.922;6.256;2023-07-31T08:03:38;98393.69;;;19.87;100.00
12468;BME280;57850;52.922;6.256;2023-07-31T08:06:05;98397.56;;;19.76;100.00
12468;BME280;57850;52.922;6.256;2023-07-31T08:08:33;98335.31;;;20.11;100.00
12468;BME280;57850;52.922;6.256;2023-07-31T08:10:59;98424.56;;;19.63;100.00
12468;BME280;57850;52.922;6.256;2023-07-31T08:13:26;98391.03;;;19.87;100.00
12468;BME280;57850;52.922;6.256;2023-07-31T08:15:53;98387.47;;;19.80;100.00
12468;BME280;57850;52.922;6.256;2023-07-31T08:18:21;98349.72;;;19.77;100.00
12468;BME280;57850;52.922;6.256;2023-07-31T08:20:48;98320.72;;;19.61;100.00
12468;BME280;57850;52.922;6.256;2023-07-31T08:23:16;98264.81;;;19.64;100.00
12468;BME280;57850;52.922;6.256;2023-07-31T08:25:42;98224.75;;;19.67;100.00
12468;BME280;57850;52.922;6.256;2023-07-31T08:28:09;98182.16;;;20.00;100.00
12468;BME280;57850;52.922;6.256;2023-07-31T08:30:35;98133.69;;;19.99;100.00
12468;BME280;57850;52.922;6.256;2023-07-31T08:33:02;98126.66;;;20.21;100.00
12468;BME280;57850;52.922;6.256;2023-07-31T08:35:30;98159.72;;;20.10;100.00
12468;BME280;57850;52.922;6.256;2023-07-31T08:37:57;98177.78;;;20.07;100.00
12468;BME280;57850;52.922;6.256;2023-07-31T08:40:23;98165.41;;;20.37;100.00
12468;BME280;57850;52.922;6.256;2023-07-31T08:42:53;98247.50;;;19.99;100.00
12468;BME280;57850;52.922;6.256;2023-07-31T08:45:22;98197.38;;;20.35;100.00
12468;BME280;57850;52.922;6.256;2023-07-31T08:47:50;98202.31;;;20.38;100.00
12468;BME280;57850;52.922;6.256;2023-07-31T08:50:18;98213.66;;;20.32;100.00
12468;BME280;57850;52.922;6.256;2023-07-31T08:52:47;98203.84;;;20.62;100.00
12468;BME280;57850;52.922;6.256;2023-07-31T08:55:15;98235.06;;;20.22;100.00
12468;BME280;57850;52.922;6.256;2023-07-31T08:57:42;98264.34;;;20.29;100.00
12468;BME280;57850;52.922;6.256;2023-07-31T09:00:10;98243.88;;;20.38;100.00
12468;BME280;57850;52.922;6.256;2023-07-31T09:02:39;98224.78;;;20.57;100.00
12468;BME280;57850;52.922;6.256;2023-07-31T09:05:08;98239.31;;;20.46;100.00
12468;BME280;57850;52.922;6.256;2023-07-31T09:07:35;98251.47;;;20.41;100.00
12468;BME280;57850;52.922;6.256;2023-07-31T09:10:04;98251.47;;;20.55;100.00
12468;BME280;57850;52.922;6.256;2023-07-31T09:12:31;98245.44;;;20.32;100.00
12468;BME280;57850;52.922;6.256;2023-07-31T09:14:58;98233.38;;;20.44;100.00
12468;BME280;57850;52.922;6.256;2023-07-31T09:17:31;98213.84;;;20.45;100.00
12468;BME280;57850;52.922;6.256;2023-07-31T09:20:13;98176.28;;;20.56;100.00
12468;BME280;57850;52.922;6.256;2023-07-31T09:22:41;98214.91;;;20.36;100.00
12468;BME280;57850;52.922;6.256;2023-07-31T09:25:17;98211.00;;;20.09;100.00
12468;BME280;57850;52.922;6.256;2023-07-31T09:27:48;98103.66;;;20.51;100.00
12468;BME280;57850;52.922;6.256;2023-07-31T09:30:16;98158.84;;;20.33;100.00
12468;BME280;57850;52.922;6.256;2023-07-31T09:32:43;98153.72;;;20.60;100.00
12468;BME280;57850;52.922;6.256;2023-07-31T09:35:19;98140.81;;;21.08;100.00
12468;BME280;57850;52.922;6.256;2023-07-31T09:37:49;98215.63;;;20.89;100.00
12468;BME280;57850;52.922;6.256;2023-07-31T09:40:27;98226.91;;;20.76;100.00
12468;BME280;57850;52.922;6.256;2023-07-31T09:42:56;98177.50;;;21.04;100.00
12468;BME280;57850;52.922;6.256;2023-07-31T09:45:23;98182.31;;;21.15;100.00
12468;BME280;57850;52.922;6.256;2023-07-31T09:47:50;98192.00;;;21.23;100.00
12468;BME280;57850;52.922;6.256;2023-07-31T09:50:17;98233.75;;;20.85;100.00
12468;BME280;57850;52.922;6.256;2023-07-31T09:52:44;98166.31;;;21.23;100.00
12468;BME280;57850;52.922;6.256;2023-07-31T09:55:12;98163.41;;;21.61;100.00
12468;BME280;57850;52.922;6.256;2023-07-31T09:57:42;98214.34;;;21.14;100.00
12468;BME280;57850;52.922;6.256;2023-07-31T10:00:10;98166.53;;;21.28;100.00
12468;BME280;57850;52.922;6.256;2023-07-31T10:02:37;98143.94;;;21.32;100.00
12468;BME280;57850;52.922;6.256;2023-07-31T10:05:06;98151.31;;;21.37;100.00
12468;BME280;57850;52.922;6.256;2023-07-31T10:07:36;98176.41;;;21.56;100.00
12468;BME280;57850;52.922;6.256;2023-07-31T10:10:06;98202.75;;;21.57;100.00
12468;BME280;57850;52.922;6.256;2023-07-31T10:12:34;98206.56;;;21.48;100.00
12468;BME280;57850;52.922;6.256;2023-07-31T10:15:03;98202.94;;;21.34;100.00
12468;BME280;57850;52.922;6.256;2023-07-31T10:17:31;98184.13;;;21.51;100.00
12468;BME280;57850;52.922;6.256;2023-07-31T10:19:58;98166.88;;;21.61;100.00
12468;BME280;57850;52.922;6.256;2023-07-31T10:22:27;98181.03;;;21.47;100.00
12468;BME280;57850;52.922;6.256;2023-07-31T10:24:55;98158.53;;;21.64;100.00
12468;BME280;57850;52.922;6.256;2023-07-31T10:27:23;98174.53;;;21.77;100.00
12468;BME280;57850;52.922;6.256;2023-07-31T10:29:51;98166.94;;;21.89;100.00
12468;BME280;57850;52.922;6.256;2023-07-31T10:32:21;98178.69;;;21.80;100.00
12468;BME280;57850;52.922;6.256;2023-07-31T10:34:49;98172.97;;;21.83;100.00
12468;BME280;57850;52.922;6.256;2023-07-31T10:37:20;98175.03;;;22.09;100.00
12468;BME280;57850;52.922;6.256;2023-07-31T10:39:58;98242.78;;;21.77;100.00
12468;BME280;57850;52.922;6.256;2023-07-31T10:42:33;98190.88;;;21.96;100.00
12468;BME280;57850;52.922;6.256;2023-07-31T10:45:02;98191.94;;;22.01;100.00
12468;BME280;57850;52.922;6.256;2023-07-31T10:47:30;98176.34;;;21.92;100.00
12468;BME280;57850;52.922;6.256;2023-07-31T10:50:16;98213.50;;;21.92;100.00
12468;BME280;57850;52.922;6.256;2023-07-31T10:52:46;98162.50;;;22.03;100.00
12468;BME280;57850;52.922;6.256;2023-07-31T10:55:15;98138.03;;;21.79;100.00
12468;BME280;57850;52.922;6.256;2023-07-31T10:57:44;98118.41;;;22.02;100.00
12468;BME280;57850;52.922;6.256;2023-07-31T11:00:19;98112.13;;;22.16;100.00
12468;BME280;57850;52.922;6.256;2023-07-31T11:02:58;98122.19;;;22.20;100.00
12468;BME280;57850;52.922;6.256;2023-07-31T11:05:42;98145.97;;;22.01;100.00
12468;BME280;57850;52.922;6.256;2023-07-31T11:08:13;98101.69;;;21.59;100.00
12468;BME280;57850;52.922;6.256;2023-07-31T11:10:41;98008.06;;;21.71;100.00
12468;BME280;57850;52.922;6.256;2023-07-31T11:13:07;98010.91;;;21.63;100.00
12468;BME280;57850;52.922;6.256;2023-07-31T11:15:34;98011.16;;;21.75;100.00
12468;BME280;57850;52.922;6.256;2023-07-31T11:18:02;98004.59;;;21.71;100.00
12468;BME280;57850;52.922;6.256;2023-07-31T11:20:31;98069.50;;;21.90;100.00
12468;BME280;57850;52.922;6.256;2023-07-31T11:22:59;98148.16;;;21.69;100.00
12468;BME280;57850;52.922;6.256;2023-07-31T11:25:28;98151.91;;;21.81;100.00
12468;BME280;57850;52.922;6.256;2023-07-31T11:27:55;98143.88;;;21.96;100.00
12468;BME280;57850;52.922;6.256;2023-07-31T11:30:22;98151.81;;;21.90;100.00
12468;BME280;57850;52.922;6.256;2023-07-31T11:32:49;98176.34;;;21.92;100.00
12468;BME280;57850;52.922;6.256;2023-07-31T11:35:17;98202.50;;;21.95;100.00
12468;BME280;57850;52.922;6.256;2023-07-31T11:37:44;98252.00;;;22.02;100.00
12468;BME280;57850;52.922;6.256;2023-07-31T11:40:12;98274.78;;;22.11;100.00
12468;BME280;57850;52.922;6.256;2023-07-31T11:42:38;98284.44;;;21.76;100.00
12468;BME280;57850;52.922;6.256;2023-07-31T11:45:06;98293.78;;;22.36;100.00
12468;BME280;57850;52.922;6.256;2023-07-31T11:47:33;98552.75;;;22.19;100.00
12468;BME280;57850;52.922;6.256;2023-07-31T11:50:01;98597.47;;;22.15;100.00
12468;BME280;57850;52.922;6.256;2023-07-31T11:52:29;98636.69;;;21.99;100.00
12468;BME280;57850;52.922;6.256;2023-07-31T11:54:56;98634.28;;;21.89;100.00
12468;BME280;57850;52.922;6.256;2023-07-31T11:57:24;98619.19;;;21.67;100.00
12468;BME280;57850;52.922;6.256;2023-07-31T11:59:51;98590.69;;;21.98;100.00
12468;BME280;57850;52.922;6.256;2023-07-31T12:02:18;98597.56;;;21.93;100.00
12468;BME280;57850;52.922;6.256;2023-07-31T12:04:46;98595.91;;;22.35;100.00
12468;BME280;57850;52.922;6.256;2023-07-31T12:07:14;98631.91;;;22.67;100.00
12468;BME280;57850;52.922;6.256;2023-07-31T12:09:52;98666.72;;;22.43;100.00
12468;BME280;57850;52.922;6.256;2023-07-31T12:12:23;98664.81;;;22.08;100.00
12468;BME280;57850;52.922;6.256;2023-07-31T12:14:50;98597.56;;;22.36;100.00
12468;BME280;57850;52.922;6.256;2023-07-31T12:17:19;98623.19;;;22.44;100.00
12468;BME280;57850;52.922;6.256;2023-07-31T12:19:45;98597.75;;;22.20;100.00
12468;BME280;57850;52.922;6.256;2023-07-31T12:22:13;98601.13;;;22.29;100.00
12468;BME280;57850;52.922;6.256;2023-07-31T12:24:41;98661.84;;;22.03;100.00
12468;BME280;57850;52.922;6.256;2023-07-31T12:27:12;98702.47;;;22.11;100.00
12468;BME280;57850;52.922;6.256;2023-07-31T12:29:40;98740.66;;;22.25;100.00
12468;BME280;57850;52.922;6.256;2023-07-31T12:32:21;98780.75;;;22.53;100.00
12468;BME280;57850;52.922;6.256;2023-07-31T12:34:48;98853.44;;;22.45;100.00
12468;BME280;57850;52.922;6.256;2023-07-31T12:37:14;98880.53;;;22.40;100.00
12468;BME280;57850;52.922;6.256;2023-07-31T12:39:41;98879.78;;;22.55;100.00
12468;BME280;57850;52.922;6.256;2023-07-31T12:42:08;98953.22;;;22.33;100.00
12468;BME280;57850;52.922;6.256;2023-07-31T12:44:36;98932.81;;;22.48;100.00
12468;BME280;57850;52.922;6.256;2023-07-31T12:47:03;98947.84;;;22.86;100.00
12468;BME280;57850;52.922;6.256;2023-07-31T12:49:30;98974.16;;;23.33;100.00
12468;BME280;57850;52.922;6.256;2023-07-31T12:51:56;99067.09;;;23.43;100.00
12468;BME280;57850;52.922;6.256;2023-07-31T12:54:23;99073.59;;;23.40;100.00